Time;durP1;ratioP1;P1;durP2;ratioP2;P2;SDS_P1;SDS_P2;PMS_P1;PMS_P2;Temp;Humidity;BMP_temperature;BMP_pressure;BME280_temperature;BME280_humidity;BME280_pressure;Samples;Min_cycle;Max_cycle;Signal;HPM_P1;HPM_P2
2022/10/28 00:00:17;;;;;;;;;;;333.10;2329.60;;;;;;5030375;28;20343;-63
2022/10/28 00:02:42;;;;;;;;;;;333.10;2329.60;;;;;;5030320;28;20291;-61
2022/10/28 00:05:08;;;;;;;;;;;333.10;2329.60;;;;;;5030278;28;19925;-61
2022/10/28 00:07:33;;;;;;;;;;;333.10;2329.60;;;;;;5030126;28;20004;-60
2022/10/28 00:09:59;;;;;;;;;;;333.10;2329.60;;;;;;5027021;28;19968;-60
2022/10/28 00:12:24;;;;;;;;;;;333.10;2329.60;;;;;;5020867;28;19999;-60
2022/10/28 00:14:50;;;;;;;;;;;333.00;2329.60;;;;;;5020216;28;19916;-60
2022/10/28 00:17:16;;;;;;;;;;;333.10;2329.60;;;;;;5019004;28;19958;-60
2022/10/28 00:19:42;;;;;;;;;;;333.00;2329.60;;;;;;5020911;28;19909;-61
2022/10/28 00:22:07;;;;;;;;;;;332.90;2329.60;;;;;;5018350;28;20020;-62
2022/10/28 00:24:33;;;;;;;;;;;332.90;2329.60;;;;;;5015724;28;19913;-60
2022/10/28 00:26:58;;;;;;;;;;;332.90;2329.60;;;;;;5019297;28;19909;-60
2022/10/28 00:29:24;;;;;;;;;;;332.80;2329.60;;;;;;5024745;28;19921;-61
2022/10/28 00:31:51;;;;;;;;;;;332.80;2329.60;;;;;;5023409;28;19914;-61
2022/10/28 00:34:17;;;;;;;;;;;332.80;2329.60;;;;;;5020045;28;19913;-60
2022/10/28 00:36:44;;;;;;;;;;;332.90;2329.60;;;;;;5020007;28;20302;-61
2022/10/28 00:39:10;;;;;;;;;;;332.90;2329.60;;;;;;5018719;28;19944;-60
2022/10/28 00:41:37;;;;;;;;;;;332.90;2329.60;;;;;;5020203;28;19909;-61
2022/10/28 00:44:22;;;;;;;;;;;332.90;2329.60;;;;;;5020101;28;19992;-61
2022/10/28 00:46:50;;;;;;;;;;;333.00;2329.60;;;;;;5015611;28;19910;-62
2022/10/28 00:49:18;;;;;;;;;;;333.00;2329.60;;;;;;5010046;28;19960;-61
2022/10/28 00:51:46;;;;;;;;;;;332.90;2329.60;;;;;;5010133;28;19910;-61
2022/10/28 00:54:12;;;;;;;;;;;332.90;2329.60;;;;;;5010748;28;19959;-61
2022/10/28 00:56:41;;;;;;;;;;;332.90;2329.60;;;;;;5013808;28;20382;-62
2022/10/28 00:59:10;;;;;;;;;;;332.80;2329.60;;;;;;5023827;28;20291;-62
2022/10/28 01:01:35;;;;;;;;;;;332.80;2329.60;;;;;;5033234;28;19909;-61
2022/10/28 01:04:01;;;;;;;;;;;308.10;2304.00;;;;;;5033441;28;19995;-62
2022/10/28 01:06:27;;;;;;;;;;;308.10;2304.00;;;;;;5033276;28;19925;-61
2022/10/28 01:08:53;;;;;;;;;;;308.10;2304.00;;;;;;5032923;28;19952;-61
2022/10/28 01:11:57;;;;;;;;;;;308.00;2304.00;;;;;;5033266;28;19948;-61
2022/10/28 01:14:25;;;;;;;;;;;308.00;2304.00;;;;;;5030870;28;19917;-61
2022/10/28 01:17:07;;;;;;;;;;;307.90;2304.00;;;;;;5031027;28;19955;-61
2022/10/28 01:19:42;;;;;;;;;;;307.90;2304.00;;;;;;5030727;28;20364;-61
2022/10/28 01:22:15;;;;;;;;;;;307.90;2304.00;;;;;;5030950;28;19920;-61
2022/10/28 01:24:58;;;;;;;;;;;307.90;2304.00;;;;;;5030800;28;20347;-62
2022/10/28 01:27:32;;;;;;;;;;;307.90;2304.00;;;;;;5030577;28;19909;-62
2022/10/28 01:30:20;;;;;;;;;;;307.90;2304.00;;;;;;5030620;28;19925;-61
2022/10/28 01:32:49;;;;;;;;;;;307.90;2304.00;;;;;;5030527;28;19909;-61
2022/10/28 01:35:21;;;;;;;;;;;307.80;2304.00;;;;;;5030350;28;19909;-61
2022/10/28 01:37:57;;;;;;;;;;;307.80;2304.00;;;;;;5030298;28;19917;-62
2022/10/28 01:40:23;;;;;;;;;;;307.80;2304.00;;;;;;5030299;28;20394;-62
2022/10/28 01:42:51;;;;;;;;;;;307.70;2304.00;;;;;;5030549;28;19917;-62
2022/10/28 01:45:16;;;;;;;;;;;307.70;2304.00;;;;;;5031342;28;19951;-62
2022/10/28 01:47:54;;;;;;;;;;;307.70;2304.00;;;;;;5032415;28;19909;-61
2022/10/28 01:50:22;;;;;;;;;;;307.60;2304.00;;;;;;5032547;28;19952;-61
2022/10/28 01:52:48;;;;;;;;;;;307.60;2304.00;;;;;;5032379;28;19917;-62
2022/10/28 01:55:22;;;;;;;;;;;307.70;2304.00;;;;;;5032197;28;19909;-61
2022/10/28 01:57:50;;;;;;;;;;;307.70;2304.00;;;;;;5032334;28;19913;-61
2022/10/28 02:00:15;;;;;;;;;;;307.70;2304.00;;;;;;5032152;28;19935;-61
2022/10/28 02:02:41;;;;;;;;;;;307.70;2304.00;;;;;;5032211;28;20016;-62
2022/10/28 02:05:25;;;;;;;;;;;307.60;2304.00;;;;;;5031730;28;19928;-62
2022/10/28 02:07:53;;;;;;;;;;;307.60;2304.00;;;;;;5031766;28;19913;-61
2022/10/28 02:10:22;;;;;;;;;;;307.60;2304.00;;;;;;5032203;28;19914;-61
2022/10/28 02:12:49;;;;;;;;;;;307.60;2304.00;;;;;;5032152;28;20072;-61
2022/10/28 02:15:24;;;;;;;;;;;307.60;2304.00;;;;;;5031800;28;19909;-61
2022/10/28 02:18:09;;;;;;;;;;;307.60;2304.00;;;;;;5031848;28;20012;-61
2022/10/28 02:20:47;;;;;;;;;;;307.60;2304.00;;;;;;5031615;28;19909;-61
2022/10/28 02:23:15;;;;;;;;;;;307.60;2304.00;;;;;;5031820;28;19971;-62
2022/10/28 02:26:01;;;;;;;;;;;307.50;2304.00;;;;;;5031802;28;19909;-61
2022/10/28 02:28:39;;;;;;;;;;;307.50;2304.00;;;;;;5030952;28;19924;-61
2022/10/28 02:31:07;;;;;;;;;;;307.50;2304.00;;;;;;5031557;28;19978;-62
2022/10/28 02:33:36;;;;;;;;;;;307.50;2304.00;;;;;;5031839;28;19968;-61
2022/10/28 02:36:07;;;;;;;;;;;307.50;2304.00;;;;;;5031561;28;20493;-61
2022/10/28 02:38:34;;;;;;;;;;;307.50;2304.00;;;;;;5031548;28;19913;-61
2022/10/28 02:41:05;;;;;;;;;;;307.50;2304.00;;;;;;5031407;28;20406;-61
2022/10/28 02:43:33;;;;;;;;;;;307.50;2304.00;;;;;;5031411;28;19960;-61
2022/10/28 02:46:01;;;;;;;;;;;307.50;2304.00;;;;;;5031513;28;19916;-62
2022/10/28 02:48:29;;;;;;;;;;;307.60;2304.00;;;;;;5030985;28;19978;-62
2022/10/28 02:51:04;;;;;;;;;;;307.50;2304.00;;;;;;5031047;28;19925;-62
2022/10/28 02:53:31;;;;;;;;;;;307.50;2304.00;;;;;;5031190;28;19909;-61
2022/10/28 02:55:58;;;;;;;;;;;307.40;2304.00;;;;;;5031052;28;19916;-61
2022/10/28 02:58:24;;;;;;;;;;;307.40;2304.00;;;;;;5031017;28;19916;-62
2022/10/28 03:00:49;;;;;;;;;;;307.50;2304.00;;;;;;5031468;28;19909;-61
2022/10/28 03:03:15;;;;;;;;;;;307.40;2304.00;;;;;;5029695;28;19909;-62
2022/10/28 03:05:41;;;;;;;;;;;307.40;2304.00;;;;;;5030952;28;19920;-61
2022/10/28 03:08:06;;;;;;;;;;;307.40;2304.00;;;;;;5030953;28;19917;-61
2022/10/28 03:10:32;;;;;;;;;;;307.40;2304.00;;;;;;5031158;28;20335;-61
2022/10/28 03:12:57;;;;;;;;;;;307.50;2304.00;;;;;;5030759;28;20367;-62
2022/10/28 03:15:23;;;;;;;;;;;307.30;2304.00;;;;;;5030983;28;20263;-62
2022/10/28 03:17:48;;;;;;;;;;;307.30;2304.00;;;;;;5031009;28;19913;-61
2022/10/28 03:20:14;;;;;;;;;;;307.30;2304.00;;;;;;5030804;28;19909;-62
2022/10/28 03:22:41;;;;;;;;;;;307.30;2304.00;;;;;;5030817;28;19964;-61
2022/10/28 03:25:07;;;;;;;;;;;307.30;2304.00;;;;;;5030755;28;19916;-61
2022/10/28 03:27:32;;;;;;;;;;;307.30;2304.00;;;;;;5030835;28;20358;-62
2022/10/28 03:29:58;;;;;;;;;;;307.30;2304.00;;;;;;5030697;28;19917;-61
2022/10/28 03:32:23;;;;;;;;;;;307.30;2304.00;;;;;;5030781;28;19992;-61
2022/10/28 03:34:49;;;;;;;;;;;307.20;2304.00;;;;;;5030568;28;19921;-61
2022/10/28 03:37:15;;;;;;;;;;;307.20;2304.00;;;;;;5030496;28;19913;-61
2022/10/28 03:39:40;;;;;;;;;;;307.20;2304.00;;;;;;5030602;28;19992;-61
2022/10/28 03:42:06;;;;;;;;;;;307.30;2304.00;;;;;;5030322;28;19909;-62
2022/10/28 03:44:31;;;;;;;;;;;307.20;2304.00;;;;;;5030774;28;19924;-61
2022/10/28 03:46:57;;;;;;;;;;;307.20;2304.00;;;;;;5030298;28;20394;-61
2022/10/28 03:49:22;;;;;;;;;;;307.20;2304.00;;;;;;5030688;28;20003;-61
2022/10/28 03:51:48;;;;;;;;;;;282.50;2278.40;;;;;;5030439;28;19956;-61
2022/10/28 03:54:13;;;;;;;;;;;307.20;2304.00;;;;;;5030262;28;19909;-62
2022/10/28 03:56:39;;;;;;;;;;;307.20;2304.00;;;;;;5030613;28;19910;-62
2022/10/28 03:59:05;;;;;;;;;;;307.20;2304.00;;;;;;5030397;28;20275;-61
2022/10/28 04:01:31;;;;;;;;;;;282.50;2278.40;;;;;;5030530;28;19909;-61
2022/10/28 04:03:56;;;;;;;;;;;282.40;2278.40;;;;;;5030136;28;20272;-61
2022/10/28 04:06:22;;;;;;;;;;;282.40;2278.40;;;;;;5030169;28;20406;-62
2022/10/28 04:08:47;;;;;;;;;;;282.40;2278.40;;;;;;5030266;28;19921;-62
2022/10/28 04:11:13;;;;;;;;;;;282.50;2278.40;;;;;;5030087;28;19909;-62
2022/10/28 04:13:38;;;;;;;;;;;282.50;2278.40;;;;;;5030399;28;19909;-62
2022/10/28 04:16:04;;;;;;;;;;;282.50;2278.40;;;;;;5030190;28;19916;-60
2022/10/28 04:18:30;;;;;;;;;;;282.50;2278.40;;;;;;5030083;28;19917;-62
2022/10/28 04:20:56;;;;;;;;;;;282.50;2278.40;;;;;;5030093;28;19932;-61
2022/10/28 04:23:21;;;;;;;;;;;282.50;2278.40;;;;;;5030269;28;20379;-63
2022/10/28 04:25:50;;;;;;;;;;;282.50;2278.40;;;;;;5030140;28;19909;-62
2022/10/28 04:28:16;;;;;;;;;;;282.50;2278.40;;;;;;5030010;28;19913;-61
2022/10/28 04:30:41;;;;;;;;;;;282.40;2278.40;;;;;;5033313;28;19913;-61
2022/10/28 04:33:08;;;;;;;;;;;282.40;2278.40;;;;;;5034213;28;19964;-61
2022/10/28 04:35:34;;;;;;;;;;;282.40;2278.40;;;;;;5033624;28;20356;-61
2022/10/28 04:38:00;;;;;;;;;;;282.50;2278.40;;;;;;5033705;28;19924;-62
2022/10/28 04:40:25;;;;;;;;;;;282.50;2278.40;;;;;;5033622;28;19909;-61
2022/10/28 04:42:51;;;;;;;;;;;282.50;2278.40;;;;;;5033712;28;19909;-61
2022/10/28 04:45:16;;;;;;;;;;;282.30;2278.40;;;;;;5033481;28;19910;-60
2022/10/28 04:47:42;;;;;;;;;;;282.30;2278.40;;;;;;5033318;28;19928;-60
2022/10/28 04:50:07;;;;;;;;;;;282.30;2278.40;;;;;;5031015;28;20457;-60
2022/10/28 04:52:33;;;;;;;;;;;282.30;2278.40;;;;;;5033519;28;19909;-61
2022/10/28 04:54:58;;;;;;;;;;;282.30;2278.40;;;;;;5033333;28;19948;-60
2022/10/28 04:57:24;;;;;;;;;;;282.30;2278.40;;;;;;5033154;28;20360;-61
2022/10/28 04:59:49;;;;;;;;;;;282.30;2278.40;;;;;;5033333;28;19932;-61
2022/10/28 05:02:15;;;;;;;;;;;282.30;2278.40;;;;;;5033064;28;19909;-60
2022/10/28 05:04:41;;;;;;;;;;;282.40;2278.40;;;;;;5032991;28;19967;-61
2022/10/28 05:07:06;;;;;;;;;;;282.40;2278.40;;;;;;5033059;28;19924;-62
2022/10/28 05:09:32;;;;;;;;;;;282.50;2278.40;;;;;;5033037;28;19921;-62
2022/10/28 05:11:57;;;;;;;;;;;282.50;2278.40;;;;;;5033338;28;19917;-62
2022/10/28 05:14:23;;;;;;;;;;;282.50;2278.40;;;;;;5033016;28;19909;-61
2022/10/28 05:16:48;;;;;;;;;;;282.50;2278.40;;;;;;5033115;28;19909;-62
2022/10/28 05:19:14;;;;;;;;;;;282.50;2278.40;;;;;;5033185;28;20381;-62
2022/10/28 05:21:39;;;;;;;;;;;282.50;2278.40;;;;;;5033121;28;19909;-62
2022/10/28 05:24:05;;;;;;;;;;;282.50;2278.40;;;;;;5033103;28;19913;-61
2022/10/28 05:26:31;;;;;;;;;;;307.20;2304.00;;;;;;5032903;28;19916;-61
2022/10/28 05:28:56;;;;;;;;;;;307.20;2304.00;;;;;;5032645;28;19921;-61
2022/10/28 05:31:22;;;;;;;;;;;307.20;2304.00;;;;;;5032742;28;19918;-61
2022/10/28 05:33:47;;;;;;;;;;;307.30;2304.00;;;;;;5032830;28;19909;-62
2022/10/28 05:36:13;;;;;;;;;;;307.20;2304.00;;;;;;5032641;28;19913;-61
2022/10/28 05:38:39;;;;;;;;;;;307.30;2304.00;;;;;;5032653;28;19999;-61
2022/10/28 05:41:04;;;;;;;;;;;307.30;2304.00;;;;;;5031407;28;19909;-62
2022/10/28 05:43:30;;;;;;;;;;;307.30;2304.00;;;;;;5032013;28;19967;-61
2022/10/28 05:45:56;;;;;;;;;;;307.40;2304.00;;;;;;5032224;28;20359;-61
2022/10/28 05:48:22;;;;;;;;;;;307.50;2304.00;;;;;;5032301;28;19923;-61
2022/10/28 05:50:47;;;;;;;;;;;307.50;2304.00;;;;;;5032537;28;19913;-62
2022/10/28 05:53:13;;;;;;;;;;;307.60;2304.00;;;;;;5032107;28;19917;-61
2022/10/28 05:55:38;;;;;;;;;;;307.70;2304.00;;;;;;5032582;28;19916;-60
2022/10/28 05:58:04;;;;;;;;;;;307.70;2304.00;;;;;;5032203;28;19916;-57
2022/10/28 06:00:30;;;;;;;;;;;307.80;2304.00;;;;;;5032263;28;20374;-56
2022/10/28 06:03:03;;;;;;;;;;;307.90;2304.00;;;;;;5032051;28;20382;-55
2022/10/28 06:05:28;;;;;;;;;;;308.00;2304.00;;;;;;5031812;28;19931;-58
2022/10/28 06:07:54;;;;;;;;;;;308.00;2304.00;;;;;;5031951;28;19996;-57
2022/10/28 06:10:19;;;;;;;;;;;308.10;2304.00;;;;;;5032078;28;19913;-58
2022/10/28 06:12:45;;;;;;;;;;;332.80;2329.60;;;;;;5032017;28;19909;-58
2022/10/28 06:15:10;;;;;;;;;;;332.90;2329.60;;;;;;5032236;28;19909;-59
2022/10/28 06:17:36;;;;;;;;;;;332.90;2329.60;;;;;;5031911;28;19910;-57
2022/10/28 06:20:02;;;;;;;;;;;333.00;2329.60;;;;;;5032252;28;19917;-58
2022/10/28 06:22:28;;;;;;;;;;;333.10;2329.60;;;;;;5032173;28;19921;-58
2022/10/28 06:24:53;;;;;;;;;;;333.10;2329.60;;;;;;5031971;28;19909;-57
2022/10/28 06:27:19;;;;;;;;;;;333.20;2329.60;;;;;;5031809;28;19919;-58
2022/10/28 06:29:44;;;;;;;;;;;333.20;2329.60;;;;;;5031538;28;20092;-57
2022/10/28 06:32:10;;;;;;;;;;;333.30;2329.60;;;;;;5031602;28;19953;-59
2022/10/28 06:34:35;;;;;;;;;;;333.30;2329.60;;;;;;5031576;28;19920;-58
2022/10/28 06:37:01;;;;;;;;;;;333.40;2329.60;;;;;;5031521;28;20409;-57
2022/10/28 06:39:26;;;;;;;;;;;333.50;2329.60;;;;;;5031516;28;19954;-58
2022/10/28 06:41:52;;;;;;;;;;;333.60;2329.60;;;;;;5031477;28;20271;-58
2022/10/28 06:44:18;;;;;;;;;;;333.60;2329.60;;;;;;5031768;28;20015;-58
2022/10/28 06:46:43;;;;;;;;;;;333.70;2329.60;;;;;;5031204;28;19910;-58
2022/10/28 06:49:09;;;;;;;;;;;358.40;2329.60;;;;;;5031176;28;19917;-58
2022/10/28 06:51:34;;;;;;;;;;;358.40;2329.60;;;;;;5030996;28;19909;-58
2022/10/28 06:54:00;;;;;;;;;;;358.40;2329.60;;;;;;5031180;28;20007;-60
2022/10/28 06:56:25;;;;;;;;;;;358.50;2329.60;;;;;;5030919;28;20334;-60
2022/10/28 06:58:51;;;;;;;;;;;358.60;2329.60;;;;;;5031260;28;20287;-57
2022/10/28 07:01:17;;;;;;;;;;;358.70;2329.60;;;;;;5030464;28;19913;-58
2022/10/28 07:03:43;;;;;;;;;;;358.60;2329.60;;;;;;5027794;28;19967;-58
2022/10/28 07:06:08;;;;;;;;;;;358.80;2329.60;;;;;;5030942;28;19929;-58
2022/10/28 07:08:34;;;;;;;;;;;358.90;2329.60;;;;;;5030861;28;19962;-60
2022/10/28 07:11:01;;;;;;;;;;;359.00;2329.60;;;;;;5031198;28;20008;-58
2022/10/28 07:13:27;;;;;;;;;;;359.20;2329.60;;;;;;5030966;28;19916;-60
2022/10/28 07:15:53;;;;;;;;;;;359.30;2329.60;;;;;;5030917;28;20270;-60
2022/10/28 07:18:19;;;;;;;;;;;384.50;2329.60;;;;;;5030958;28;19913;-59
2022/10/28 07:20:45;;;;;;;;;;;435.70;2355.20;;;;;;5030652;28;19916;-59
2022/10/28 07:23:10;;;;;;;;;;;486.70;2380.80;;;;;;5031004;28;19913;-59
2022/10/28 07:25:36;;;;;;;;;;;512.90;2380.80;;;;;;5030644;28;20260;-59
2022/10/28 07:28:02;;;;;;;;;;;563.30;2355.20;;;;;;5030773;28;19909;-60
2022/10/28 07:30:27;;;;;;;;;;;563.60;2278.40;;;;;;5030678;28;20405;-60
2022/10/28 07:32:53;;;;;;;;;;;563.90;2227.20;;;;;;5030591;28;20007;-59
2022/10/28 07:35:18;;;;;;;;;;;589.70;2073.60;;;;;;5030568;28;19915;-59
2022/10/28 07:37:44;;;;;;;;;;;615.20;1971.20;;;;;;5030750;28;20355;-60
2022/10/28 07:40:10;;;;;;;;;;;640.90;1868.80;;;;;;5030629;28;19932;-58
2022/10/28 07:42:35;;;;;;;;;;;666.30;1792.00;;;;;;5030428;28;19909;-58
2022/10/28 07:45:01;;;;;;;;;;;691.60;1715.20;;;;;;5030468;28;19963;-60
2022/10/28 07:47:27;;;;;;;;;;;692.00;1638.40;;;;;;5030273;28;19909;-60
2022/10/28 07:49:53;;;;;;;;;;;691.20;1689.60;;;;;;5030344;28;19971;-60
2022/10/28 07:52:19;;;;;;;;;;;666.20;1715.20;;;;;;5030384;28;19910;-58
2022/10/28 07:54:44;;;;;;;;;;;666.00;1715.20;;;;;;5030190;28;19909;-58
2022/10/28 07:57:10;;;;;;;;;;;665.70;1740.80;;;;;;5030350;28;19914;-60
2022/10/28 07:59:35;;;;;;;;;;;691.60;1664.00;;;;;;5025544;28;19910;-61
2022/10/28 08:02:01;;;;;;;;;;;692.10;1638.40;;;;;;5010776;28;20000;-58
2022/10/28 08:04:31;;;;;;;;;;;716.80;1638.40;;;;;;5011459;28;20011;-59
2022/10/28 08:06:57;;;;;;;;;;;742.40;1587.20;;;;;;5014469;28;20016;-61
2022/10/28 08:09:22;;;;;;;;;;;716.90;1587.20;;;;;;5014794;28;20533;-60
2022/10/28 08:11:48;;;;;;;;;;;691.70;1612.80;;;;;;5014725;28;20359;-59
2022/10/28 08:14:13;;;;;;;;;;;717.30;1587.20;;;;;;5014586;28;19914;-59
2022/10/28 08:16:39;;;;;;;;;;;742.40;1561.60;;;;;;5014501;28;19910;-59
2022/10/28 08:19:05;;;;;;;;;;;742.50;1561.60;;;;;;5014556;28;19909;-59
2022/10/28 08:21:30;;;;;;;;;;;717.60;1536.00;;;;;;5014470;28;19910;-61
2022/10/28 08:23:56;;;;;;;;;;;717.20;1561.60;;;;;;5014178;28;19909;-61
2022/10/28 08:26:21;;;;;;;;;;;717.60;1536.00;;;;;;5014659;28;19914;-59
2022/10/28 08:28:47;;;;;;;;;;;742.80;1510.40;;;;;;5013844;28;20012;-60
2022/10/28 08:31:12;;;;;;;;;;;768.00;1484.80;;;;;;5014014;28;19909;-60
2022/10/28 08:33:39;;;;;;;;;;;768.60;1459.20;;;;;;5014200;28;19913;-60
2022/10/28 08:36:05;;;;;;;;;;;793.60;1459.20;;;;;;5013920;28;19940;-62
2022/10/28 08:38:31;;;;;;;;;;;794.20;1408.00;;;;;;5014031;28;19918;-61
2022/10/28 08:41:15;;;;;;;;;;;793.80;1433.60;;;;;;5014063;28;20265;-60
2022/10/28 08:43:49;;;;;;;;;;;794.40;1408.00;;;;;;5014204;28;19963;-61
2022/10/28 08:46:27;;;;;;;;;;;844.90;1356.80;;;;;;5013928;28;19937;-59
2022/10/28 08:48:53;;;;;;;;;;;819.70;1356.80;;;;;;5013626;28;19968;-60
2022/10/28 08:51:23;;;;;;;;;;;819.30;1382.40;;;;;;5013793;28;19949;-60
2022/10/28 08:53:49;;;;;;;;;;;819.20;1356.80;;;;;;5013704;28;19982;-60
2022/10/28 08:56:34;;;;;;;;;;;819.90;1356.80;;;;;;5013517;28;19956;-61
2022/10/28 08:59:03;;;;;;;;;;;819.50;1356.80;;;;;;5016323;28;20252;-63
2022/10/28 09:01:44;;;;;;;;;;;819.30;1356.80;;;;;;5020945;28;19928;-59
2022/10/28 09:04:15;;;;;;;;;;;820.10;1331.20;;;;;;5033434;28;19913;-60
2022/10/28 09:06:40;;;;;;;;;;;844.90;1331.20;;;;;;5018143;28;20299;-59
2022/10/28 09:09:11;;;;;;;;;;;793.70;1382.40;;;;;;5013308;28;19924;-61
2022/10/28 09:11:55;;;;;;;;;;;742.90;1433.60;;;;;;5013315;28;19910;-62
2022/10/28 09:14:26;;;;;;;;;;;717.20;1484.80;;;;;;5013496;28;19916;-58
2022/10/28 09:17:04;;;;;;;;;;;666.40;1561.60;;;;;;5013190;28;20012;-58
2022/10/28 09:19:29;;;;;;;;;;;665.60;1638.40;;;;;;5013277;28;19913;-60
2022/10/28 09:21:55;;;;;;;;;;;615.30;1664.00;;;;;;5013028;28;20367;-59
2022/10/28 09:24:34;;;;;;;;;;;615.10;1689.60;;;;;;5013530;28;19920;-60
2022/10/28 09:27:08;;;;;;;;;;;615.30;1664.00;;;;;;5015718;28;19913;-60
2022/10/28 09:29:37;;;;;;;;;;;614.70;1715.20;;;;;;5012855;28;19918;-58
2022/10/28 09:32:10;;;;;;;;;;;589.70;1766.40;;;;;;5013085;28;19917;-59
2022/10/28 09:34:45;;;;;;;;;;;614.40;1766.40;;;;;;5012910;28;19921;-60
2022/10/28 09:37:28;;;;;;;;;;;614.40;1766.40;;;;;;5012972;28;19920;-60
2022/10/28 09:39:55;;;;;;;;;;;614.40;1766.40;;;;;;5012575;28;19909;-59
2022/10/28 09:42:40;;;;;;;;;;;589.60;1792.00;;;;;;5013075;28;19913;-60
2022/10/28 09:45:18;;;;;;;;;;;589.40;1817.60;;;;;;5032226;28;19928;-60
2022/10/28 09:47:54;;;;;;;;;;;589.10;1843.20;;;;;;5035533;28;19948;-58
2022/10/28 09:50:21;;;;;;;;;;;589.50;1817.60;;;;;;5030322;28;19921;-57
2022/10/28 09:52:56;;;;;;;;;;;589.20;1843.20;;;;;;5030257;28;19990;-58
2022/10/28 09:55:22;;;;;;;;;;;589.50;1817.60;;;;;;5030186;28;19916;-60
2022/10/28 09:57:48;;;;;;;;;;;589.00;1868.80;;;;;;5030272;28;19932;-60
2022/10/28 10:00:13;;;;;;;;;;;589.00;1868.80;;;;;;5029945;28;20411;-59
2022/10/28 10:02:42;;;;;;;;;;;588.90;1894.40;;;;;;5030166;28;20274;-59
2022/10/28 10:05:12;;;;;;;;;;;589.00;1868.80;;;;;;5036088;28;20014;-58
2022/10/28 10:07:55;;;;;;;;;;;563.90;1920.00;;;;;;5050137;28;19913;-59
2022/10/28 10:10:23;;;;;;;;;;;588.80;1920.00;;;;;;5048273;28;19928;-60
2022/10/28 10:12:50;;;;;;;;;;;564.10;1945.60;;;;;;5050281;28;19913;-58
2022/10/28 10:15:20;;;;;;;;;;;563.90;1996.80;;;;;;5049787;28;20374;-60
2022/10/28 10:17:46;;;;;;;;;;;564.10;1996.80;;;;;;5049589;28;19916;-59
2022/10/28 10:20:17;;;;;;;;;;;588.90;1996.80;;;;;;5049702;28;19999;-60
2022/10/28 10:22:44;;;;;;;;;;;564.10;1996.80;;;;;;5022538;28;20303;-59
2022/10/28 10:25:18;;;;;;;;;;;564.00;2022.40;;;;;;5011985;28;19915;-58
2022/10/28 10:27:51;;;;;;;;;;;564.00;2022.40;;;;;;5011573;28;19916;-60
2022/10/28 10:30:36;;;;;;;;;;;563.80;2048.00;;;;;;5011928;28;20364;-60
2022/10/28 10:33:02;;;;;;;;;;;563.70;2048.00;;;;;;5012062;28;19917;-59
2022/10/28 10:35:30;;;;;;;;;;;563.80;2048.00;;;;;;5011727;28;19917;-60
2022/10/28 10:37:57;;;;;;;;;;;563.80;2073.60;;;;;;5011611;28;19918;-59
2022/10/28 10:40:23;;;;;;;;;;;563.80;2073.60;;;;;;5011263;28;19913;-59
2022/10/28 10:42:48;;;;;;;;;;;563.70;2099.20;;;;;;5028363;28;19979;-58
2022/10/28 10:45:21;;;;;;;;;;;563.70;2099.20;;;;;;5031732;28;19986;-60
2022/10/28 10:47:47;;;;;;;;;;;563.90;2099.20;;;;;;5031252;28;19909;-58
2022/10/28 10:50:18;;;;;;;;;;;563.80;2099.20;;;;;;5031258;28;20355;-60
2022/10/28 10:52:48;;;;;;;;;;;563.70;2150.40;;;;;;5031108;28;19976;-58
2022/10/28 10:55:19;;;;;;;;;;;563.70;2124.80;;;;;;5031073;28;20296;-58
2022/10/28 10:57:46;;;;;;;;;;;563.90;2124.80;;;;;;5030935;28;19909;-61
2022/10/28 11:00:15;;;;;;;;;;;563.80;2124.80;;;;;;5031275;28;19909;-57
2022/10/28 11:02:45;;;;;;;;;;;563.70;2124.80;;;;;;5021394;28;20401;-59
2022/10/28 11:05:10;;;;;;;;;;;563.70;2124.80;;;;;;5019784;28;19964;-59
2022/10/28 11:07:39;;;;;;;;;;;563.50;2176.00;;;;;;5028146;28;19913;-60
2022/10/28 11:10:05;;;;;;;;;;;563.50;2150.40;;;;;;5027116;28;19921;-60
2022/10/28 11:12:35;;;;;;;;;;;563.60;2176.00;;;;;;5019078;28;19909;-58
2022/10/28 11:15:02;;;;;;;;;;;563.60;2176.00;;;;;;5016722;28;19913;-56
2022/10/28 11:17:28;;;;;;;;;;;563.70;2124.80;;;;;;5017721;28;19917;-60
2022/10/28 11:19:55;;;;;;;;;;;563.70;2150.40;;;;;;5017597;28;20347;-60
2022/10/28 11:22:40;;;;;;;;;;;563.50;2176.00;;;;;;5019030;28;19913;-60
2022/10/28 11:25:17;;;;;;;;;;;563.70;2150.40;;;;;;5019077;28;19913;-61
2022/10/28 11:27:46;;;;;;;;;;;563.60;2150.40;;;;;;5019812;28;20000;-58
2022/10/28 11:30:18;;;;;;;;;;;563.60;2176.00;;;;;;5022958;28;19921;-59
2022/10/28 11:32:44;;;;;;;;;;;563.70;2150.40;;;;;;5013393;28;19952;-57
2022/10/28 11:35:22;;;;;;;;;;;563.40;2176.00;;;;;;5008442;28;19956;-58
2022/10/28 11:37:55;;;;;;;;;;;563.60;2150.40;;;;;;5009342;28;20141;-57
2022/10/28 11:40:41;;;;;;;;;;;563.50;2150.40;;;;;;5008769;28;19913;-59
2022/10/28 11:43:27;;;;;;;;;;;563.70;2150.40;;;;;;5008619;28;19953;-58
2022/10/28 11:46:04;;;;;;;;;;;563.60;2150.40;;;;;;5009504;28;19914;-60
2022/10/28 11:48:48;;;;;;;;;;;563.70;2150.40;;;;;;5009447;28;19926;-60
2022/10/28 11:51:16;;;;;;;;;;;563.60;2150.40;;;;;;5009060;28;19921;-58
2022/10/28 11:54:04;;;;;;;;;;;563.50;2150.40;;;;;;5009245;28;20413;-60
2022/10/28 11:56:35;;;;;;;;;;;563.60;2150.40;;;;;;5025797;28;20007;-58
2022/10/28 11:59:01;;;;;;;;;;;563.50;2150.40;;;;;;5026472;28;19910;-58
2022/10/28 12:01:35;;;;;;;;;;;563.60;2150.40;;;;;;5026167;28;19909;-58
2022/10/28 12:04:01;;;;;;;;;;;563.60;2176.00;;;;;;5026360;28;19920;-57
2022/10/28 12:06:32;;;;;;;;;;;563.50;2150.40;;;;;;5008507;28;19925;-59
2022/10/28 12:08:58;;;;;;;;;;;563.60;2150.40;;;;;;5006259;28;19917;-60
2022/10/28 12:11:35;;;;;;;;;;;563.80;2124.80;;;;;;5006355;28;19916;-60
2022/10/28 12:14:05;;;;;;;;;;;563.60;2124.80;;;;;;5006649;28;19993;-58
2022/10/28 12:16:46;;;;;;;;;;;563.60;2124.80;;;;;;5006713;28;19909;-59
2022/10/28 12:19:17;;;;;;;;;;;563.80;2124.80;;;;;;5006626;28;19913;-56
2022/10/28 12:21:44;;;;;;;;;;;563.60;2124.80;;;;;;5006196;28;20468;-59
2022/10/28 12:24:15;;;;;;;;;;;563.80;2124.80;;;;;;5006498;28;20536;-57
2022/10/28 12:26:42;;;;;;;;;;;563.60;2124.80;;;;;;5006315;28;19972;-59
2022/10/28 12:29:13;;;;;;;;;;;563.70;2124.80;;;;;;5006351;28;20315;-57
2022/10/28 12:31:41;;;;;;;;;;;563.90;2099.20;;;;;;5006222;28;19910;-57
2022/10/28 12:34:11;;;;;;;;;;;563.70;2124.80;;;;;;4978511;28;20044;-58
2022/10/28 12:36:43;;;;;;;;;;;563.70;2124.80;;;;;;4969394;28;19922;-60
2022/10/28 12:39:12;;;;;;;;;;;563.60;2150.40;;;;;;4969776;28;20503;-57
2022/10/28 12:41:40;;;;;;;;;;;563.80;2124.80;;;;;;4969484;28;19921;-57
2022/10/28 12:44:10;;;;;;;;;;;563.80;2099.20;;;;;;4969471;28;19915;-57
2022/10/28 12:46:56;;;;;;;;;;;563.80;2099.20;;;;;;4969543;28;19917;-58
2022/10/28 12:49:40;;;;;;;;;;;563.80;2073.60;;;;;;4969412;28;19919;-59
2022/10/28 12:52:18;;;;;;;;;;;563.90;2099.20;;;;;;4973169;28;19977;-60
2022/10/28 12:54:47;;;;;;;;;;;563.90;2073.60;;;;;;4973090;28;19969;-58
2022/10/28 12:57:13;;;;;;;;;;;563.70;2124.80;;;;;;4986176;28;20459;-59
2022/10/28 12:59:42;;;;;;;;;;;563.70;2124.80;;;;;;4992533;28;20359;-57
2022/10/28 13:02:19;;;;;;;;;;;563.80;2124.80;;;;;;4992403;28;19914;-57
2022/10/28 13:04:45;;;;;;;;;;;563.90;2124.80;;;;;;4999302;28;19913;-57
2022/10/28 13:07:29;;;;;;;;;;;563.70;2150.40;;;;;;5031766;28;19944;-57
2022/10/28 13:10:01;;;;;;;;;;;563.70;2124.80;;;;;;5031213;28;19927;-57
2022/10/28 13:12:39;;;;;;;;;;;563.60;2124.80;;;;;;5031444;28;19909;-59
2022/10/28 13:15:11;;;;;;;;;;;563.60;2150.40;;;;;;5031526;28;19909;-59
2022/10/28 13:17:55;;;;;;;;;;;563.60;2124.80;;;;;;5031361;28;20598;-58
2022/10/28 13:20:29;;;;;;;;;;;563.60;2124.80;;;;;;5031765;28;19963;-58
2022/10/28 13:23:04;;;;;;;;;;;563.60;2124.80;;;;;;5030911;28;19959;-58
2022/10/28 13:25:30;;;;;;;;;;;563.60;2124.80;;;;;;5031090;28;19992;-60
2022/10/28 13:27:56;;;;;;;;;;;563.70;2124.80;;;;;;5031221;28;20012;-60
2022/10/28 13:30:22;;;;;;;;;;;563.70;2124.80;;;;;;5031397;28;19921;-57
2022/10/28 13:33:08;;;;;;;;;;;563.60;2150.40;;;;;;5031418;28;19955;-57
2022/10/28 13:35:34;;;;;;;;;;;563.80;2124.80;;;;;;5030548;28;19924;-58
2022/10/28 13:38:00;;;;;;;;;;;563.60;2150.40;;;;;;5031205;28;19913;-57
2022/10/28 13:40:29;;;;;;;;;;;563.60;2150.40;;;;;;5031061;28;19909;-60
2022/10/28 13:42:59;;;;;;;;;;;563.60;2176.00;;;;;;5031099;28;20371;-57
2022/10/28 13:45:43;;;;;;;;;;;563.60;2176.00;;;;;;5031753;28;19982;-61
2022/10/28 13:48:29;;;;;;;;;;;563.50;2176.00;;;;;;5030960;28;20381;-56
2022/10/28 13:51:10;;;;;;;;;;;563.50;2176.00;;;;;;5030689;28;19917;-58